LOWW Airport Information

Runway Information
Runway 11 Length 11483 ft width 148 ft
Elevation 575 ft Threshold 0 ft Heading 116
Runway 29 Length 11483 ft Width 148 ft
Elevation 600 ft Threshold 0 ft Heading 296
Runway 16 Length 11811 ft width 148 ft
Elevation 597 ft Threshold 2953 ft Heading 164
Runway 34 Length 11811 ft Width 148 ft
Elevation 586 ft Threshold 0 ft Heading 344
Airport Frequencies
Type APP Name WIEN RADAR Frequency 128.2 MHZ
Type ATIS Name ATIS Frequency 121.725 MHZ
Type CLD Name WIEN CLNC Frequency 122.125 MHZ
Type DIR Name DIRECTOR Frequency 119.8 MHZ
Type GND Name WIEN GND Frequency 121.6 MHZ
Type INFO Name INFO Frequency 118.525 MHZ
Type RMP Name VIENNA ICE Frequency 131.625 MHZ
Type TWR Name WIEN TWR Frequency 119.4 MHZ
Airport Navaids
Type NDB Name Bruck Frequency 408 KHZ
Type VOR-DME Name Fischamend Frequency 110400 KHZ
Type VOR-DME Name Sollenau Frequency 115500 KHZ
Type NDB Name Steinhof Frequency 293 KHZ
Type VOR-DME Name Wagram Frequency 112200 KHZ
Type NDB Name Schwechat Frequency 303 KHZ
Airport Weather Information & NOTAM
ADDS - METARS form results

(1102 UTC 23 March 2019)
Data provider http://aviationweather.gov/metar/data/
 
METAR text: LOWW 231050Z VRB02KT CAVOK 15/07 Q1028 NOSIG
Conditions at: LOWW (VIENNA/SCHWECHAT, AT) observed 1050 UTC 23 March 2019
Temperature: 15.0°C (59°F)
Dewpoint: 7.0°C (45°F) [RH = 59%]
Pressure (altimeter): 30.35 inches Hg (1028.0 mb)
Winds: variable direction winds at 2 MPH (2 knots; 1.0 m/s)
Visibility: 6 or more miles (10+ km)
Ceiling: ceiling and visibility are OK
Clouds: unknown
Weather: no significant weather observed at this time

METAR text: LOWW 231020Z VRB03KT CAVOK 14/07 Q1028 NOSIG
Conditions at: LOWW (VIENNA/SCHWECHAT, AT) observed 1020 UTC 23 March 2019
Temperature: 14.0°C (57°F)
Dewpoint: 7.0°C (45°F) [RH = 63%]
Pressure (altimeter): 30.35 inches Hg (1028.0 mb)
Winds: variable direction winds at 3 MPH (3 knots; 1.5 m/s)
Visibility: 6 or more miles (10+ km)
Ceiling: ceiling and visibility are OK
Clouds: unknown
Weather: no significant weather observed at this time

Forecast for: LOWW (VIENNA/SCHWECHAT, AT)
Text: TAF LOWW 230815Z 2309/2415 VRB02KT CAVOK TX19/2315Z TN08/2403Z
Forecast period: 0900 UTC 23 March 2019 to 0100 UTC 24 March 2019
Forecast type: FROM: standard forecast or significant change
Winds: variable direction winds at 2 MPH (2 knots; 1.0 m/s)
Visibility: 6 or more miles 10+ km)
Ceiling: unknown
Clouds: missing
Weather: no significant weather forecast for this period
Text: BECMG 2401/2403 32004KT 9999 FEW010 BKN050
Forecast period: 0100 to 1500 UTC 24 March 2019
Forecast type: BECOMING: Conditions expected to become as follows by 0300 UTC 24 March 2019
Winds: from the NW (320 degrees) at 5 MPH (4 knots; 2.1 m/s)
Visibility: 6 or more miles 10+ km)
Ceiling: 5000 feet AGL
Clouds: few clouds at 1000 feet AGL
broken clouds at 5000 feet AGL
Weather: no significant weather forecast for this period